sensor_id;sensor_type;location;lat;lon;timestamp;temperature;humidity
69335;SHT31;56477;52.742;15.242;2023-03-12T00:01:38;-0.25;89.74
69335;SHT31;56477;52.742;15.242;2023-03-12T00:04:04;-0.22;89.54
69335;SHT31;56477;52.742;15.242;2023-03-12T00:06:30;-0.24;89.53
69335;SHT31;56477;52.742;15.242;2023-03-12T00:08:57;-0.21;89.62
69335;SHT31;56477;52.742;15.242;2023-03-12T00:11:23;-0.18;89.65
69335;SHT31;56477;52.742;15.242;2023-03-12T00:13:54;-0.11;89.26
69335;SHT31;56477;52.742;15.242;2023-03-12T00:16:22;-0.12;89.19
69335;SHT31;56477;52.742;15.242;2023-03-12T00:18:49;-0.12;89.13
69335;SHT31;56477;52.742;15.242;2023-03-12T00:21:15;-0.12;89.09
69335;SHT31;56477;52.742;15.242;2023-03-12T00:23:41;-0.12;89.08
69335;SHT31;56477;52.742;15.242;2023-03-12T00:26:10;-0.15;89.13
69335;SHT31;56477;52.742;15.242;2023-03-12T00:28:37;-0.18;89.38
69335;SHT31;56477;52.742;15.242;2023-03-12T00:31:13;-0.19;89.27
69335;SHT31;56477;52.742;15.242;2023-03-12T00:33:39;-0.21;89.44
69335;SHT31;56477;52.742;15.242;2023-03-12T00:36:05;-0.35;89.74
69335;SHT31;56477;52.742;15.242;2023-03-12T00:38:31;-0.28;89.65
69335;SHT31;56477;52.742;15.242;2023-03-12T00:40:57;-0.32;89.72
69335;SHT31;56477;52.742;15.242;2023-03-12T00:43:23;-0.32;90.01
69335;SHT31;56477;52.742;15.242;2023-03-12T00:45:49;-0.28;89.83
69335;SHT31;56477;52.742;15.242;2023-03-12T00:48:15;-0.25;89.82
69335;SHT31;56477;52.742;15.242;2023-03-12T00:50:41;-0.17;89.49
69335;SHT31;56477;52.742;15.242;2023-03-12T00:53:06;-0.19;89.41
69335;SHT31;56477;52.742;15.242;2023-03-12T00:55:32;-0.10;89.12
69335;SHT31;56477;52.742;15.242;2023-03-12T00:57:58;-0.07;89.00
69335;SHT31;56477;52.742;15.242;2023-03-12T01:00:24;-0.05;89.02
69335;SHT31;56477;52.742;15.242;2023-03-12T01:02:50;-0.01;88.63
69335;SHT31;56477;52.742;15.242;2023-03-12T01:05:16;-0.03;88.89
69335;SHT31;56477;52.742;15.242;2023-03-12T01:07:42;-0.04;88.91
69335;SHT31;56477;52.742;15.242;2023-03-12T01:10:11;0.00;88.61
69335;SHT31;56477;52.742;15.242;2023-03-12T01:12:38;0.02;88.78
69335;SHT31;56477;52.742;15.242;2023-03-12T01:15:05;0.05;88.70
69335;SHT31;56477;52.742;15.242;2023-03-12T01:17:30;0.06;88.75
69335;SHT31;56477;52.742;15.242;2023-03-12T01:19:56;0.10;88.58
69335;SHT31;56477;52.742;15.242;2023-03-12T01:22:22;0.11;88.50
69335;SHT31;56477;52.742;15.242;2023-03-12T01:24:49;0.17;88.62
69335;SHT31;56477;52.742;15.242;2023-03-12T01:27:14;0.20;88.62
69335;SHT31;56477;52.742;15.242;2023-03-12T01:29:40;0.27;88.36
69335;SHT31;56477;52.742;15.242;2023-03-12T01:32:06;0.33;88.16
69335;SHT31;56477;52.742;15.242;2023-03-12T01:34:34;0.31;88.08
69335;SHT31;56477;52.742;15.242;2023-03-12T01:37:00;0.34;88.03
69335;SHT31;56477;52.742;15.242;2023-03-12T01:39:26;0.36;87.81
69335;SHT31;56477;52.742;15.242;2023-03-12T01:41:52;0.38;87.79
69335;SHT31;56477;52.742;15.242;2023-03-12T01:44:18;0.38;87.91
69335;SHT31;56477;52.742;15.242;2023-03-12T01:46:44;0.40;87.90
69335;SHT31;56477;52.742;15.242;2023-03-12T01:49:29;0.40;87.88
69335;SHT31;56477;52.742;15.242;2023-03-12T01:52:35;0.43;87.79
69335;SHT31;56477;52.742;15.242;2023-03-12T01:55:09;0.48;87.63
69335;SHT31;56477;52.742;15.242;2023-03-12T01:57:42;0.44;87.77
69335;SHT31;56477;52.742;15.242;2023-03-12T02:00:11;0.46;87.84
69335;SHT31;56477;52.742;15.242;2023-03-12T02:02:39;0.48;87.63
69335;SHT31;56477;52.742;15.242;2023-03-12T02:05:12;0.47;87.63
69335;SHT31;56477;52.742;15.242;2023-03-12T02:07:39;0.51;87.47
69335;SHT31;56477;52.742;15.242;2023-03-12T02:10:06;0.51;87.54
69335;SHT31;56477;52.742;15.242;2023-03-12T02:12:31;0.48;87.61
69335;SHT31;56477;52.742;15.242;2023-03-12T02:14:58;0.44;87.78
69335;SHT31;56477;52.742;15.242;2023-03-12T02:17:23;0.43;87.83
69335;SHT31;56477;52.742;15.242;2023-03-12T02:22:37;0.34;88.23
69335;SHT31;56477;52.742;15.242;2023-03-12T02:27:44;0.26;88.60
69335;SHT31;56477;52.742;15.242;2023-03-12T02:30:11;0.26;88.60
69335;SHT31;56477;52.742;15.242;2023-03-12T02:32:41;0.21;88.80
69335;SHT31;56477;52.742;15.242;2023-03-12T02:35:08;0.18;88.98
69335;SHT31;56477;52.742;15.242;2023-03-12T02:37:34;0.13;89.23
69335;SHT31;56477;52.742;15.242;2023-03-12T02:40:13;0.11;89.26
69335;SHT31;56477;52.742;15.242;2023-03-12T02:42:41;0.09;89.47
69335;SHT31;56477;52.742;15.242;2023-03-12T02:45:08;0.06;89.50
69335;SHT31;56477;52.742;15.242;2023-03-12T02:47:33;0.05;89.61
69335;SHT31;56477;52.742;15.242;2023-03-12T02:49:59;0.10;89.29
69335;SHT31;56477;52.742;15.242;2023-03-12T02:52:25;0.14;89.36
69335;SHT31;56477;52.742;15.242;2023-03-12T02:54:51;0.11;89.32
69335;SHT31;56477;52.742;15.242;2023-03-12T02:57:17;0.16;89.12
69335;SHT31;56477;52.742;15.242;2023-03-12T02:59:43;0.13;89.29
69335;SHT31;56477;52.742;15.242;2023-03-12T03:02:09;0.09;89.28
69335;SHT31;56477;52.742;15.242;2023-03-12T03:04:37;0.07;89.56
69335;SHT31;56477;52.742;15.242;2023-03-12T03:07:03;0.06;89.50
69335;SHT31;56477;52.742;15.242;2023-03-12T03:09:29;0.09;89.45
69335;SHT31;56477;52.742;15.242;2023-03-12T03:11:55;0.03;89.61
69335;SHT31;56477;52.742;15.242;2023-03-12T03:14:21;0.03;89.67
69335;SHT31;56477;52.742;15.242;2023-03-12T03:16:47;0.10;89.43
69335;SHT31;56477;52.742;15.242;2023-03-12T03:19:13;0.10;89.44
69335;SHT31;56477;52.742;15.242;2023-03-12T03:21:39;0.10;89.48
69335;SHT31;56477;52.742;15.242;2023-03-12T03:24:05;0.03;89.87
69335;SHT31;56477;52.742;15.242;2023-03-12T03:26:31;0.05;89.57
69335;SHT31;56477;52.742;15.242;2023-03-12T03:28:57;0.03;89.67
69335;SHT31;56477;52.742;15.242;2023-03-12T03:31:23;-0.08;89.97
69335;SHT31;56477;52.742;15.242;2023-03-12T03:33:49;0.00;89.93
69335;SHT31;56477;52.742;15.242;2023-03-12T03:36:15;-0.05;90.22
69335;SHT31;56477;52.742;15.242;2023-03-12T03:38:42;-0.05;89.95
69335;SHT31;56477;52.742;15.242;2023-03-12T03:41:11;-0.07;90.16
69335;SHT31;56477;52.742;15.242;2023-03-12T03:43:37;-0.08;90.19
69335;SHT31;56477;52.742;15.242;2023-03-12T03:46:04;-0.10;90.16
69335;SHT31;56477;52.742;15.242;2023-03-12T03:48:31;-0.18;90.50
69335;SHT31;56477;52.742;15.242;2023-03-12T03:51:01;-0.18;90.61
69335;SHT31;56477;52.742;15.242;2023-03-12T03:53:28;-0.22;90.56
69335;SHT31;56477;52.742;15.242;2023-03-12T03:55:54;-0.24;90.75
69335;SHT31;56477;52.742;15.242;2023-03-12T03:58:21;-0.19;90.70
69335;SHT31;56477;52.742;15.242;2023-03-12T04:00:46;-0.12;90.25
69335;SHT31;56477;52.742;15.242;2023-03-12T04:03:13;-0.11;90.37
69335;SHT31;56477;52.742;15.242;2023-03-12T04:05:39;-0.12;90.36
69335;SHT31;56477;52.742;15.242;2023-03-12T04:08:11;-0.12;90.34
69335;SHT31;56477;52.742;15.242;2023-03-12T04:10:37;-0.08;90.35
69335;SHT31;56477;52.742;15.242;2023-03-12T04:13:03;-0.11;90.49
69335;SHT31;56477;52.742;15.242;2023-03-12T04:15:28;-0.15;90.65
69335;SHT31;56477;52.742;15.242;2023-03-12T04:17:54;-0.12;90.48
69335;SHT31;56477;52.742;15.242;2023-03-12T04:20:20;-0.18;90.88
69335;SHT31;56477;52.742;15.242;2023-03-12T04:22:46;-0.18;90.99
69335;SHT31;56477;52.742;15.242;2023-03-12T04:25:12;-0.17;90.99
69335;SHT31;56477;52.742;15.242;2023-03-12T04:27:38;-0.17;91.06
69335;SHT31;56477;52.742;15.242;2023-03-12T04:30:04;-0.21;91.10
69335;SHT31;56477;52.742;15.242;2023-03-12T04:32:30;-0.21;91.18
69335;SHT31;56477;52.742;15.242;2023-03-12T04:34:56;-0.24;91.31
69335;SHT31;56477;52.742;15.242;2023-03-12T04:37:22;-0.31;91.37
69335;SHT31;56477;52.742;15.242;2023-03-12T04:39:47;-0.29;91.29
69335;SHT31;56477;52.742;15.242;2023-03-12T04:42:13;-0.32;91.44
69335;SHT31;56477;52.742;15.242;2023-03-12T04:44:39;-0.38;91.59
69335;SHT31;56477;52.742;15.242;2023-03-12T04:47:06;-0.36;91.68
69335;SHT31;56477;52.742;15.242;2023-03-12T04:49:32;-0.39;91.60
69335;SHT31;56477;52.742;15.242;2023-03-12T04:51:58;-0.42;91.71
69335;SHT31;56477;52.742;15.242;2023-03-12T04:54:24;-0.45;91.64
69335;SHT31;56477;52.742;15.242;2023-03-12T04:56:50;-0.45;91.76
69335;SHT31;56477;52.742;15.242;2023-03-12T04:59:16;-0.48;91.77
69335;SHT31;56477;52.742;15.242;2023-03-12T05:01:42;-0.48;91.85
69335;SHT31;56477;52.742;15.242;2023-03-12T05:04:08;-0.53;91.79
69335;SHT31;56477;52.742;15.242;2023-03-12T05:06:34;-0.55;91.99
69335;SHT31;56477;52.742;15.242;2023-03-12T05:09:00;-0.53;91.94
69335;SHT31;56477;52.742;15.242;2023-03-12T05:11:26;-0.53;92.13
69335;SHT31;56477;52.742;15.242;2023-03-12T05:13:52;-0.51;91.94
69335;SHT31;56477;52.742;15.242;2023-03-12T05:16:18;-0.55;92.13
69335;SHT31;56477;52.742;15.242;2023-03-12T05:18:44;-0.51;91.89
69335;SHT31;56477;52.742;15.242;2023-03-12T05:21:18;-0.51;91.88
69335;SHT31;56477;52.742;15.242;2023-03-12T05:23:44;-0.53;92.01
69335;SHT31;56477;52.742;15.242;2023-03-12T05:26:27;-0.52;91.95
69335;SHT31;56477;52.742;15.242;2023-03-12T05:28:53;-0.49;91.83
69335;SHT31;56477;52.742;15.242;2023-03-12T05:31:20;-0.52;92.02
69335;SHT31;56477;52.742;15.242;2023-03-12T05:33:46;-0.55;92.09
69335;SHT31;56477;52.742;15.242;2023-03-12T05:36:12;-0.51;91.98
69335;SHT31;56477;52.742;15.242;2023-03-12T05:38:39;-0.52;91.93
69335;SHT31;56477;52.742;15.242;2023-03-12T05:41:09;-0.51;91.89
69335;SHT31;56477;52.742;15.242;2023-03-12T05:43:35;-0.56;92.12
69335;SHT31;56477;52.742;15.242;2023-03-12T05:46:03;-0.58;92.12
69335;SHT31;56477;52.742;15.242;2023-03-12T05:48:30;-0.56;92.07
69335;SHT31;56477;52.742;15.242;2023-03-12T05:50:56;-0.53;92.09
69335;SHT31;56477;52.742;15.242;2023-03-12T05:53:22;-0.55;92.04
69335;SHT31;56477;52.742;15.242;2023-03-12T05:55:48;-0.52;92.06
69335;SHT31;56477;52.742;15.242;2023-03-12T05:58:14;-0.53;91.96
69335;SHT31;56477;52.742;15.242;2023-03-12T06:00:41;-0.53;91.90
69335;SHT31;56477;52.742;15.242;2023-03-12T06:03:07;-0.51;91.76
69335;SHT31;56477;52.742;15.242;2023-03-12T06:05:34;-0.46;91.66
69335;SHT31;56477;52.742;15.242;2023-03-12T06:08:01;-0.49;91.81
69335;SHT31;56477;52.742;15.242;2023-03-12T06:10:28;-0.43;91.63
69335;SHT31;56477;52.742;15.242;2023-03-12T06:12:54;-0.48;91.67
69335;SHT31;56477;52.742;15.242;2023-03-12T06:15:20;-0.39;91.55
69335;SHT31;56477;52.742;15.242;2023-03-12T06:17:46;-0.33;91.33
69335;SHT31;56477;52.742;15.242;2023-03-12T06:20:12;-0.24;90.93
69335;SHT31;56477;52.742;15.242;2023-03-12T06:22:38;-0.08;90.42
69335;SHT31;56477;52.742;15.242;2023-03-12T06:25:04;-0.04;89.99
69335;SHT31;56477;52.742;15.242;2023-03-12T06:27:31;0.09;89.55
69335;SHT31;56477;52.742;15.242;2023-03-12T06:29:57;0.28;89.11
69335;SHT31;56477;52.742;15.242;2023-03-12T06:32:23;0.58;88.39
69335;SHT31;56477;52.742;15.242;2023-03-12T06:34:49;0.88;86.85
69335;SHT31;56477;52.742;15.242;2023-03-12T06:37:15;0.84;86.30
69335;SHT31;56477;52.742;15.242;2023-03-12T06:39:41;1.02;85.89
69335;SHT31;56477;52.742;15.242;2023-03-12T06:42:07;1.47;84.57
69335;SHT31;56477;52.742;15.242;2023-03-12T06:44:33;1.74;82.81
69335;SHT31;56477;52.742;15.242;2023-03-12T06:46:59;2.47;81.98
69335;SHT31;56477;52.742;15.242;2023-03-12T06:49:25;2.85;78.79
69335;SHT31;56477;52.742;15.242;2023-03-12T06:51:52;2.67;78.72
69335;SHT31;56477;52.742;15.242;2023-03-12T06:54:18;2.09;82.17
69335;SHT31;56477;52.742;15.242;2023-03-12T06:56:44;1.61;83.00
69335;SHT31;56477;52.742;15.242;2023-03-12T06:59:10;1.64;83.41
69335;SHT31;56477;52.742;15.242;2023-03-12T07:01:36;1.78;82.95
69335;SHT31;56477;52.742;15.242;2023-03-12T07:04:02;1.98;82.29
69335;SHT31;56477;52.742;15.242;2023-03-12T07:06:28;2.19;84.17
69335;SHT31;56477;52.742;15.242;2023-03-12T07:08:54;2.77;80.19
69335;SHT31;56477;52.742;15.242;2023-03-12T07:11:20;2.57;81.07
69335;SHT31;56477;52.742;15.242;2023-03-12T07:13:46;2.54;81.48
69335;SHT31;56477;52.742;15.242;2023-03-12T07:16:13;2.22;82.01
69335;SHT31;56477;52.742;15.242;2023-03-12T07:18:39;2.42;81.12
69335;SHT31;56477;52.742;15.242;2023-03-12T07:21:05;1.86;82.54
69335;SHT31;56477;52.742;15.242;2023-03-12T07:23:31;1.92;83.01
69335;SHT31;56477;52.742;15.242;2023-03-12T07:25:57;2.76;81.18
69335;SHT31;56477;52.742;15.242;2023-03-12T07:28:23;3.02;79.78
69335;SHT31;56477;52.742;15.242;2023-03-12T07:30:49;3.21;77.90
69335;SHT31;56477;52.742;15.242;2023-03-12T07:33:17;2.65;80.30
69335;SHT31;56477;52.742;15.242;2023-03-12T07:35:44;2.94;78.80
69335;SHT31;56477;52.742;15.242;2023-03-12T07:38:11;3.02;79.60
69335;SHT31;56477;52.742;15.242;2023-03-12T07:40:37;3.11;78.72
69335;SHT31;56477;52.742;15.242;2023-03-12T07:43:04;2.63;79.42
69335;SHT31;56477;52.742;15.242;2023-03-12T07:45:37;3.81;77.89
69335;SHT31;56477;52.742;15.242;2023-03-12T07:48:04;2.92;78.05
69335;SHT31;56477;52.742;15.242;2023-03-12T07:50:31;3.23;78.39
69335;SHT31;56477;52.742;15.242;2023-03-12T07:52:57;3.28;77.61
69335;SHT31;56477;52.742;15.242;2023-03-12T07:55:23;4.44;74.04
69335;SHT31;56477;52.742;15.242;2023-03-12T07:57:49;5.01;71.92
69335;SHT31;56477;52.742;15.242;2023-03-12T08:00:15;6.09;70.36
69335;SHT31;56477;52.742;15.242;2023-03-12T08:02:41;5.35;70.69
69335;SHT31;56477;52.742;15.242;2023-03-12T08:05:07;5.03;69.21
69335;SHT31;56477;52.742;15.242;2023-03-12T08:07:34;4.42;72.02
69335;SHT31;56477;52.742;15.242;2023-03-12T08:10:02;4.97;72.01
69335;SHT31;56477;52.742;15.242;2023-03-12T08:12:29;5.60;68.30
69335;SHT31;56477;52.742;15.242;2023-03-12T08:14:54;4.37;70.69
69335;SHT31;56477;52.742;15.242;2023-03-12T08:17:21;4.34;71.61
69335;SHT31;56477;52.742;15.242;2023-03-12T08:19:47;4.46;72.12
69335;SHT31;56477;52.742;15.242;2023-03-12T08:22:13;4.49;70.88
69335;SHT31;56477;52.742;15.242;2023-03-12T08:24:39;4.53;71.07
69335;SHT31;56477;52.742;15.242;2023-03-12T08:27:05;5.82;69.54
69335;SHT31;56477;52.742;15.242;2023-03-12T08:29:31;5.95;66.75
69335;SHT31;56477;52.742;15.242;2023-03-12T08:31:58;6.64;64.53
69335;SHT31;56477;52.742;15.242;2023-03-12T08:34:24;5.45;67.59
69335;SHT31;56477;52.742;15.242;2023-03-12T08:36:50;5.52;67.03
69335;SHT31;56477;52.742;15.242;2023-03-12T08:39:17;6.49;64.63
69335;SHT31;56477;52.742;15.242;2023-03-12T08:41:43;8.12;59.96
69335;SHT31;56477;52.742;15.242;2023-03-12T08:44:09;7.63;60.64
69335;SHT31;56477;52.742;15.242;2023-03-12T08:46:35;7.74;59.83
69335;SHT31;56477;52.742;15.242;2023-03-12T08:49:01;8.02;59.33
69335;SHT31;56477;52.742;15.242;2023-03-12T08:51:27;7.70;57.94
69335;SHT31;56477;52.742;15.242;2023-03-12T08:53:53;6.81;60.39
69335;SHT31;56477;52.742;15.242;2023-03-12T08:56:19;6.20;63.23
69335;SHT31;56477;52.742;15.242;2023-03-12T08:58:44;6.03;63.54
69335;SHT31;56477;52.742;15.242;2023-03-12T09:01:11;6.67;63.00
69335;SHT31;56477;52.742;15.242;2023-03-12T09:03:38;5.86;61.92
69335;SHT31;56477;52.742;15.242;2023-03-12T09:06:08;5.63;65.17
69335;SHT31;56477;52.742;15.242;2023-03-12T09:08:40;5.37;65.54
69335;SHT31;56477;52.742;15.242;2023-03-12T09:11:08;5.87;64.20
69335;SHT31;56477;52.742;15.242;2023-03-12T09:13:34;6.27;60.55
69335;SHT31;56477;52.742;15.242;2023-03-12T09:16:02;5.93;61.12
69335;SHT31;56477;52.742;15.242;2023-03-12T09:18:29;5.01;64.25
69335;SHT31;56477;52.742;15.242;2023-03-12T09:20:56;5.30;64.55
69335;SHT31;56477;52.742;15.242;2023-03-12T09:23:22;5.80;62.11
69335;SHT31;56477;52.742;15.242;2023-03-12T09:25:48;5.28;61.59
69335;SHT31;56477;52.742;15.242;2023-03-12T09:28:15;4.73;65.29
69335;SHT31;56477;52.742;15.242;2023-03-12T09:30:41;5.48;63.66
69335;SHT31;56477;52.742;15.242;2023-03-12T09:33:07;5.58;63.01
69335;SHT31;56477;52.742;15.242;2023-03-12T09:35:33;4.99;64.00
69335;SHT31;56477;52.742;15.242;2023-03-12T09:38:01;5.41;63.32
69335;SHT31;56477;52.742;15.242;2023-03-12T09:40:30;5.17;61.97
69335;SHT31;56477;52.742;15.242;2023-03-12T09:45:48;5.76;60.15
69335;SHT31;56477;52.742;15.242;2023-03-12T09:48:17;5.21;61.30
69335;SHT31;56477;52.742;15.242;2023-03-12T09:50:47;5.07;60.67
69335;SHT31;56477;52.742;15.242;2023-03-12T09:53:36;5.38;61.27
69335;SHT31;56477;52.742;15.242;2023-03-12T09:56:02;4.83;62.27
69335;SHT31;56477;52.742;15.242;2023-03-12T09:58:37;4.63;60.67
69335;SHT31;56477;52.742;15.242;2023-03-12T10:15:03;5.38;57.99
69335;SHT31;56477;52.742;15.242;2023-03-12T10:17:51;5.34;58.63
69335;SHT31;56477;52.742;15.242;2023-03-12T10:20:34;5.55;58.73
69335;SHT31;56477;52.742;15.242;2023-03-12T10:25:43;6.20;57.76
69335;SHT31;56477;52.742;15.242;2023-03-12T10:28:16;5.85;56.49
69335;SHT31;56477;52.742;15.242;2023-03-12T10:30:51;6.09;57.44
69335;SHT31;56477;52.742;15.242;2023-03-12T10:33:18;5.93;56.70
69335;SHT31;56477;52.742;15.242;2023-03-12T10:35:45;5.66;55.84
69335;SHT31;56477;52.742;15.242;2023-03-12T10:38:19;6.16;57.72
69335;SHT31;56477;52.742;15.242;2023-03-12T10:40:46;6.17;54.61
69335;SHT31;56477;52.742;15.242;2023-03-12T10:43:13;5.62;56.18
69335;SHT31;56477;52.742;15.242;2023-03-12T10:48:23;5.48;55.60
69335;SHT31;56477;52.742;15.242;2023-03-12T10:51:19;5.00;56.26
69335;SHT31;56477;52.742;15.242;2023-03-12T10:53:45;5.07;57.89
69335;SHT31;56477;52.742;15.242;2023-03-12T10:56:17;5.55;58.10
69335;SHT31;56477;52.742;15.242;2023-03-12T10:58:45;6.17;55.97
69335;SHT31;56477;52.742;15.242;2023-03-12T11:03:43;5.73;55.18
69335;SHT31;56477;52.742;15.242;2023-03-12T11:09:04;5.11;59.16
69335;SHT31;56477;52.742;15.242;2023-03-12T11:11:33;5.08;60.73
69335;SHT31;56477;52.742;15.242;2023-03-12T11:14:26;5.69;60.74
69335;SHT31;56477;52.742;15.242;2023-03-12T11:16:54;6.75;59.56
69335;SHT31;56477;52.742;15.242;2023-03-12T11:19:33;7.13;58.09
69335;SHT31;56477;52.742;15.242;2023-03-12T11:22:05;5.83;56.07
69335;SHT31;56477;52.742;15.242;2023-03-12T11:24:33;6.02;56.60
69335;SHT31;56477;52.742;15.242;2023-03-12T11:29:52;7.22;56.42
69335;SHT31;56477;52.742;15.242;2023-03-12T11:32:31;6.64;56.29
69335;SHT31;56477;52.742;15.242;2023-03-12T11:34:58;7.17;57.02
69335;SHT31;56477;52.742;15.242;2023-03-12T11:37:26;7.55;54.42
69335;SHT31;56477;52.742;15.242;2023-03-12T11:50:26;5.62;58.83
69335;SHT31;56477;52.742;15.242;2023-03-12T11:56:27;6.38;56.87
69335;SHT31;56477;52.742;15.242;2023-03-12T12:10:22;6.75;56.35
69335;SHT31;56477;52.742;15.242;2023-03-12T12:16:02;6.09;59.63
69335;SHT31;56477;52.742;15.242;2023-03-12T12:19:30;7.13;57.71
69335;SHT31;56477;52.742;15.242;2023-03-12T12:24:47;6.24;59.78
69335;SHT31;56477;52.742;15.242;2023-03-12T12:27:30;5.87;60.89
69335;SHT31;56477;52.742;15.242;2023-03-12T12:36:09;5.06;63.87
69335;SHT31;56477;52.742;15.242;2023-03-12T12:38:46;4.94;63.16
69335;SHT31;56477;52.742;15.242;2023-03-12T12:46:15;5.47;62.77
69335;SHT31;56477;52.742;15.242;2023-03-12T12:48:53;5.56;61.73
69335;SHT31;56477;52.742;15.242;2023-03-12T12:51:24;5.69;63.32
69335;SHT31;56477;52.742;15.242;2023-03-12T12:54:03;5.27;64.30
69335;SHT31;56477;52.742;15.242;2023-03-12T12:59:38;5.59;63.38
69335;SHT31;56477;52.742;15.242;2023-03-12T13:02:16;5.32;64.42
69335;SHT31;56477;52.742;15.242;2023-03-12T13:04:44;5.38;64.81
69335;SHT31;56477;52.742;15.242;2023-03-12T13:09:51;4.90;66.05
69335;SHT31;56477;52.742;15.242;2023-03-12T13:14:50;5.04;65.69
69335;SHT31;56477;52.742;15.242;2023-03-12T13:21:25;4.93;66.26
69335;SHT31;56477;52.742;15.242;2023-03-12T13:24:04;5.35;66.33
69335;SHT31;56477;52.742;15.242;2023-03-12T13:31:53;5.48;66.84
69335;SHT31;56477;52.742;15.242;2023-03-12T13:36:47;5.16;65.66
69335;SHT31;56477;52.742;15.242;2023-03-12T13:47:21;4.87;67.15
69335;SHT31;56477;52.742;15.242;2023-03-12T13:50:00;5.17;65.77
69335;SHT31;56477;52.742;15.242;2023-03-12T13:55:16;5.60;64.99
69335;SHT31;56477;52.742;15.242;2023-03-12T13:57:53;5.80;63.59
69335;SHT31;56477;52.742;15.242;2023-03-12T14:00:39;5.89;63.82
69335;SHT31;56477;52.742;15.242;2023-03-12T14:03:18;6.18;62.71
69335;SHT31;56477;52.742;15.242;2023-03-12T14:11:20;5.47;65.82
69335;SHT31;56477;52.742;15.242;2023-03-12T14:16:46;5.69;63.76
69335;SHT31;56477;52.742;15.242;2023-03-12T14:19:18;5.82;64.13
69335;SHT31;56477;52.742;15.242;2023-03-12T14:21:48;6.02;62.85
69335;SHT31;56477;52.742;15.242;2023-03-12T14:24:39;5.68;63.75
69335;SHT31;56477;52.742;15.242;2023-03-12T14:27:13;5.65;62.61
69335;SHT31;56477;52.742;15.242;2023-03-12T14:29:56;5.55;63.84
69335;SHT31;56477;52.742;15.242;2023-03-12T14:32:26;5.69;64.46
69335;SHT31;56477;52.742;15.242;2023-03-12T14:34:58;5.65;63.57
69335;SHT31;56477;52.742;15.242;2023-03-12T14:37:34;5.66;63.79
69335;SHT31;56477;52.742;15.242;2023-03-12T14:40:24;5.63;63.24
69335;SHT31;56477;52.742;15.242;2023-03-12T14:42:58;5.35;63.23
69335;SHT31;56477;52.742;15.242;2023-03-12T14:45:24;5.31;64.57
69335;SHT31;56477;52.742;15.242;2023-03-12T14:47:56;5.16;65.26
69335;SHT31;56477;52.742;15.242;2023-03-12T14:50:38;5.13;64.42
69335;SHT31;56477;52.742;15.242;2023-03-12T14:53:35;4.99;65.15
69335;SHT31;56477;52.742;15.242;2023-03-12T14:56:33;4.96;65.63
69335;SHT31;56477;52.742;15.242;2023-03-12T14:59:20;4.99;65.67
69335;SHT31;56477;52.742;15.242;2023-03-12T15:01:47;5.18;65.59
69335;SHT31;56477;52.742;15.242;2023-03-12T15:04:16;5.27;65.81
69335;SHT31;56477;52.742;15.242;2023-03-12T15:06:54;5.24;65.93
69335;SHT31;56477;52.742;15.242;2023-03-12T15:09:27;5.23;65.17
69335;SHT31;56477;52.742;15.242;2023-03-12T15:12:05;5.16;65.20
69335;SHT31;56477;52.742;15.242;2023-03-12T15:14:37;5.18;65.85
69335;SHT31;56477;52.742;15.242;2023-03-12T15:17:04;5.16;65.35
69335;SHT31;56477;52.742;15.242;2023-03-12T15:19:35;5.11;65.37
69335;SHT31;56477;52.742;15.242;2023-03-12T15:22:02;5.08;64.98
69335;SHT31;56477;52.742;15.242;2023-03-12T15:24:36;5.01;65.70
69335;SHT31;56477;52.742;15.242;2023-03-12T15:27:34;5.01;65.55
69335;SHT31;56477;52.742;15.242;2023-03-12T15:30:01;5.03;65.67
69335;SHT31;56477;52.742;15.242;2023-03-12T15:33:12;5.00;66.11
69335;SHT31;56477;52.742;15.242;2023-03-12T15:38:28;4.97;66.28
69335;SHT31;56477;52.742;15.242;2023-03-12T15:40:58;5.01;66.49
69335;SHT31;56477;52.742;15.242;2023-03-12T15:43:26;4.97;66.91
69335;SHT31;56477;52.742;15.242;2023-03-12T15:45:57;5.01;66.38
69335;SHT31;56477;52.742;15.242;2023-03-12T15:50:57;4.99;65.61
69335;SHT31;56477;52.742;15.242;2023-03-12T15:53:29;4.99;65.49
69335;SHT31;56477;52.742;15.242;2023-03-12T15:58:38;5.07;65.82
69335;SHT31;56477;52.742;15.242;2023-03-12T16:01:13;5.08;65.91
69335;SHT31;56477;52.742;15.242;2023-03-12T16:03:41;5.04;65.43
69335;SHT31;56477;52.742;15.242;2023-03-12T16:06:26;5.04;62.55
69335;SHT31;56477;52.742;15.242;2023-03-12T16:08:59;4.81;60.36
69335;SHT31;56477;52.742;15.242;2023-03-12T16:11:33;4.93;62.21
69335;SHT31;56477;52.742;15.242;2023-03-12T16:14:23;4.93;64.04
69335;SHT31;56477;52.742;15.242;2023-03-12T16:16:52;4.97;62.15
69335;SHT31;56477;52.742;15.242;2023-03-12T16:19:20;4.84;62.86
69335;SHT31;56477;52.742;15.242;2023-03-12T16:21:47;4.83;63.11
69335;SHT31;56477;52.742;15.242;2023-03-12T16:24:13;4.81;62.61
69335;SHT31;56477;52.742;15.242;2023-03-12T16:29:15;4.80;64.16
69335;SHT31;56477;52.742;15.242;2023-03-12T16:31:41;4.83;65.01
69335;SHT31;56477;52.742;15.242;2023-03-12T16:34:09;4.77;65.08
69335;SHT31;56477;52.742;15.242;2023-03-12T16:36:36;4.76;65.05
69335;SHT31;56477;52.742;15.242;2023-03-12T16:39:02;4.77;65.52
69335;SHT31;56477;52.742;15.242;2023-03-12T16:41:29;4.76;66.04
69335;SHT31;56477;52.742;15.242;2023-03-12T16:43:57;4.76;66.11
69335;SHT31;56477;52.742;15.242;2023-03-12T16:46:28;4.73;66.42
69335;SHT31;56477;52.742;15.242;2023-03-12T16:48:55;4.65;67.03
69335;SHT31;56477;52.742;15.242;2023-03-12T16:51:21;4.63;66.13
69335;SHT31;56477;52.742;15.242;2023-03-12T16:53:47;4.65;66.73
69335;SHT31;56477;52.742;15.242;2023-03-12T16:56:19;4.62;65.32
69335;SHT31;56477;52.742;15.242;2023-03-12T16:58:46;4.62;63.91
69335;SHT31;56477;52.742;15.242;2023-03-12T17:01:19;4.65;64.51
69335;SHT31;56477;52.742;15.242;2023-03-12T17:03:47;4.56;64.01
69335;SHT31;56477;52.742;15.242;2023-03-12T17:06:24;4.58;64.50
69335;SHT31;56477;52.742;15.242;2023-03-12T17:08:50;4.63;64.38
69335;SHT31;56477;52.742;15.242;2023-03-12T17:11:22;4.65;63.87
69335;SHT31;56477;52.742;15.242;2023-03-12T17:13:52;4.65;64.69
69335;SHT31;56477;52.742;15.242;2023-03-12T17:16:19;4.62;64.91
69335;SHT31;56477;52.742;15.242;2023-03-12T17:18:45;4.63;64.79
69335;SHT31;56477;52.742;15.242;2023-03-12T17:21:12;4.55;64.77
69335;SHT31;56477;52.742;15.242;2023-03-12T17:23:39;4.50;62.08
69335;SHT31;56477;52.742;15.242;2023-03-12T17:26:05;4.46;61.43
69335;SHT31;56477;52.742;15.242;2023-03-12T17:28:31;4.46;61.35
69335;SHT31;56477;52.742;15.242;2023-03-12T17:30:58;4.42;61.56
69335;SHT31;56477;52.742;15.242;2023-03-12T17:33:24;4.38;61.79
69335;SHT31;56477;52.742;15.242;2023-03-12T17:36:02;4.34;61.91
69335;SHT31;56477;52.742;15.242;2023-03-12T17:38:28;4.32;62.04
69335;SHT31;56477;52.742;15.242;2023-03-12T17:40:56;4.35;61.90
69335;SHT31;56477;52.742;15.242;2023-03-12T17:43:22;4.34;62.21
69335;SHT31;56477;52.742;15.242;2023-03-12T17:45:49;4.31;62.33
69335;SHT31;56477;52.742;15.242;2023-03-12T17:48:15;4.29;62.87